createdAt,value
2022-12-27T00:00:02.171Z,2.62
2022-12-27T00:01:02.199Z,2.65
2022-12-27T00:02:02.132Z,2.54
2022-12-27T00:03:02.155Z,2.59
2022-12-27T00:04:02.131Z,2.61
2022-12-27T00:05:02.111Z,2.58
2022-12-27T00:06:02.062Z,2.62
2022-12-27T00:07:02.074Z,2.64
2022-12-27T00:08:02.072Z,2.57
2022-12-27T00:09:02.065Z,2.58
2022-12-27T00:10:02.046Z,2.58
2022-12-27T00:11:02.019Z,2.61
2022-12-27T00:12:02.041Z,2.57
2022-12-27T00:13:02.019Z,2.57
2022-12-27T00:14:01.994Z,2.52
2022-12-27T00:15:02.018Z,2.51
2022-12-27T00:16:01.975Z,2.43
2022-12-27T00:17:01.964Z,2.50
2022-12-27T00:18:01.975Z,2.54
2022-12-27T00:19:01.950Z,2.58
2022-12-27T00:20:06.839Z,2.50
2022-12-27T00:21:03.915Z,2.47
2022-12-27T00:22:01.942Z,2.43
2022-12-27T00:23:01.874Z,2.44
2022-12-27T00:24:01.914Z,2.41
2022-12-27T00:25:01.881Z,2.44
2022-12-27T00:26:01.959Z,2.46
2022-12-27T00:27:01.873Z,2.43
2022-12-27T00:28:01.867Z,2.39
2022-12-27T00:29:01.851Z,2.34
2022-12-27T00:30:01.798Z,2.32
2022-12-27T00:31:01.823Z,2.32
2022-12-27T00:32:01.863Z,2.37
2022-12-27T00:33:01.786Z,2.30
2022-12-27T00:34:01.810Z,2.28
2022-12-27T00:35:01.774Z,2.34
2022-12-27T00:36:01.734Z,2.32
2022-12-27T00:37:01.743Z,2.23
2022-12-27T00:38:01.757Z,2.18
2022-12-27T00:39:01.752Z,2.21
2022-12-27T00:40:01.726Z,2.21
2022-12-27T00:41:01.712Z,2.05
2022-12-27T00:42:01.708Z,2.18
2022-12-27T00:43:01.691Z,2.08
2022-12-27T00:44:01.676Z,2.04
2022-12-27T00:45:01.661Z,2.04
2022-12-27T00:46:01.712Z,1.93
2022-12-27T00:47:01.612Z,1.97
2022-12-27T00:48:01.640Z,1.97
2022-12-27T00:49:01.638Z,1.98
2022-12-27T00:50:01.637Z,1.92
2022-12-27T00:51:01.583Z,1.88
2022-12-27T00:52:01.633Z,1.95
2022-12-27T00:53:01.581Z,1.86
2022-12-27T00:54:01.573Z,1.95
2022-12-27T00:55:01.581Z,1.88
2022-12-27T00:56:01.528Z,1.76
2022-12-27T00:57:01.525Z,1.84
2022-12-27T00:58:01.531Z,1.76
2022-12-27T00:59:01.538Z,1.75
2022-12-27T01:00:07.919Z,1.81
2022-12-27T01:01:03.543Z,1.75
2022-12-27T01:02:02.654Z,1.74
2022-12-27T01:03:01.446Z,1.74
2022-12-27T01:04:01.511Z,1.75
2022-12-27T01:05:01.445Z,1.79
2022-12-27T01:06:01.425Z,1.71
2022-12-27T01:07:01.434Z,1.81
2022-12-27T01:08:01.430Z,1.78
2022-12-27T01:09:02.460Z,1.64
2022-12-27T01:10:01.377Z,1.74
2022-12-27T01:11:01.386Z,1.70
2022-12-27T01:12:01.389Z,1.71
2022-12-27T01:13:01.378Z,1.74
2022-12-27T01:14:01.341Z,1.74
2022-12-27T01:15:01.360Z,1.82
2022-12-27T01:16:01.350Z,1.81
2022-12-27T01:17:01.396Z,1.88
2022-12-27T01:18:01.295Z,1.86
2022-12-27T01:19:01.337Z,1.93
2022-12-27T01:20:01.288Z,2.05
2022-12-27T01:21:01.295Z,2.16
2022-12-27T01:22:01.306Z,2.25
2022-12-27T01:23:01.254Z,2.21
2022-12-27T01:24:01.224Z,2.23
2022-12-27T01:25:01.251Z,2.23
2022-12-27T01:26:01.232Z,2.39
2022-12-27T01:27:01.224Z,2.40
2022-12-27T01:28:01.229Z,2.43
2022-12-27T01:29:01.198Z,2.47
2022-12-27T01:30:01.166Z,2.51
2022-12-27T01:31:01.170Z,2.55
2022-12-27T01:32:01.271Z,2.47
2022-12-27T01:33:01.159Z,2.57
2022-12-27T01:34:01.130Z,2.50
2022-12-27T01:35:01.173Z,2.54
2022-12-27T01:36:01.123Z,2.51
2022-12-27T01:37:01.107Z,2.51
2022-12-27T01:38:01.113Z,2.51
2022-12-27T01:39:01.101Z,2.51
2022-12-27T01:40:01.099Z,2.51
2022-12-27T01:41:01.082Z,2.55
2022-12-27T01:42:01.080Z,2.58
2022-12-27T01:43:01.018Z,2.59
2022-12-27T01:44:01.053Z,2.61
2022-12-27T01:45:01.023Z,2.58
2022-12-27T01:46:01.086Z,2.54
2022-12-27T01:47:01.023Z,2.55
2022-12-27T01:48:01.020Z,2.62
2022-12-27T01:49:03.283Z,2.57
2022-12-27T01:50:00.967Z,2.50
2022-12-27T01:51:00.988Z,2.44
2022-12-27T01:52:00.960Z,2.44
2022-12-27T01:53:00.943Z,2.55
2022-12-27T01:54:00.943Z,2.44
2022-12-27T01:55:00.927Z,2.40
2022-12-27T01:56:00.887Z,2.39
2022-12-27T01:57:00.897Z,2.37
2022-12-27T01:58:01.907Z,2.43
2022-12-27T01:59:00.853Z,2.36
2022-12-27T02:00:00.892Z,2.33
2022-12-27T02:01:00.926Z,2.26
2022-12-27T02:02:01.018Z,2.33
2022-12-27T02:03:00.872Z,2.26
2022-12-27T02:04:00.852Z,2.25
2022-12-27T02:05:00.811Z,2.30
2022-12-27T02:06:00.790Z,2.16
2022-12-27T02:07:00.815Z,2.15
2022-12-27T02:08:00.751Z,1.98
2022-12-27T02:09:00.768Z,2.08
2022-12-27T02:10:00.768Z,2.04
2022-12-27T02:11:00.783Z,1.98
2022-12-27T02:12:00.735Z,1.93
2022-12-27T02:13:00.715Z,1.88
2022-12-27T02:14:00.728Z,1.95
2022-12-27T02:15:00.695Z,1.82
2022-12-27T02:16:00.672Z,1.76
2022-12-27T02:17:00.763Z,1.79
2022-12-27T02:18:00.692Z,1.75
2022-12-27T02:19:00.673Z,1.70
2022-12-27T02:20:00.640Z,1.57
2022-12-27T02:21:00.632Z,1.61
2022-12-27T02:22:00.652Z,1.52
2022-12-27T02:23:00.599Z,1.52
2022-12-27T02:24:00.621Z,1.64
2022-12-27T02:25:00.590Z,1.52
2022-12-27T02:26:00.566Z,1.46
2022-12-27T02:27:00.589Z,1.49
2022-12-27T02:28:00.563Z,1.36
2022-12-27T02:29:00.550Z,1.42
2022-12-27T02:30:00.520Z,1.27
2022-12-27T02:31:00.605Z,1.34
2022-12-27T02:32:00.517Z,1.21
2022-12-27T02:33:00.511Z,1.14
2022-12-27T02:34:00.505Z,1.10
2022-12-27T02:35:00.505Z,1.06
2022-12-27T02:36:00.466Z,0.91
2022-12-27T02:37:00.470Z,0.95
2022-12-27T02:38:00.466Z,0.82
2022-12-27T02:39:00.426Z,0.74
2022-12-27T02:40:00.456Z,0.74
2022-12-27T02:41:00.430Z,0.56
2022-12-27T02:42:00.396Z,0.66
2022-12-27T02:43:00.389Z,0.59
2022-12-27T02:44:00.432Z,0.55
2022-12-27T02:45:00.399Z,0.49
2022-12-27T02:46:00.378Z,0.51
2022-12-27T02:47:00.357Z,0.51
2022-12-27T02:48:00.382Z,0.47
2022-12-27T02:49:00.339Z,0.34
2022-12-27T02:50:00.339Z,0.36
2022-12-27T02:51:00.308Z,0.48
2022-12-27T02:52:00.327Z,0.39
2022-12-27T02:53:00.316Z,0.33
2022-12-27T02:54:00.281Z,0.29
2022-12-27T02:55:00.300Z,0.44
2022-12-27T02:56:00.254Z,0.40
2022-12-27T02:57:00.247Z,0.42
2022-12-27T02:58:00.264Z,0.37
2022-12-27T02:59:00.242Z,0.48
2022-12-27T03:00:00.234Z,0.45
2022-12-27T03:01:00.228Z,0.47
2022-12-27T03:02:00.353Z,0.52
2022-12-27T03:03:00.241Z,0.63
2022-12-27T03:04:00.204Z,0.48
2022-12-27T03:05:00.212Z,0.52
2022-12-27T03:06:00.137Z,0.52
2022-12-27T03:07:00.151Z,0.55
2022-12-27T03:08:00.174Z,0.52
2022-12-27T03:09:00.140Z,0.44
2022-12-27T03:10:00.103Z,0.51
2022-12-27T03:11:00.118Z,0.51
2022-12-27T03:12:00.093Z,0.59
2022-12-27T03:13:00.113Z,0.58
2022-12-27T03:14:00.112Z,0.49
2022-12-27T03:15:00.120Z,0.56
2022-12-27T03:16:00.105Z,0.55
2022-12-27T03:17:00.040Z,0.52
2022-12-27T03:18:00.052Z,0.55
2022-12-27T03:19:00.014Z,0.58
2022-12-27T03:20:00.016Z,0.49
2022-12-27T03:20:59.980Z,0.56
2022-12-27T03:21:59.988Z,0.55
2022-12-27T03:22:59.982Z,0.58
2022-12-27T03:23:59.950Z,0.63
2022-12-27T03:24:59.936Z,0.56
2022-12-27T03:25:59.982Z,0.63
2022-12-27T03:26:59.899Z,0.58
2022-12-27T03:27:59.930Z,0.58
2022-12-27T03:28:59.910Z,0.61
2022-12-27T03:29:59.872Z,0.68
2022-12-27T03:30:59.934Z,0.64
2022-12-27T03:31:59.880Z,0.61
2022-12-27T03:32:59.863Z,0.71
2022-12-27T03:33:59.837Z,0.64
2022-12-27T03:34:59.847Z,0.68
2022-12-27T03:35:59.954Z,0.70
2022-12-27T03:36:59.807Z,0.81
2022-12-27T03:37:59.825Z,0.78
2022-12-27T03:38:59.795Z,0.78
2022-12-27T03:39:59.838Z,0.76
2022-12-27T03:40:59.770Z,0.85
2022-12-27T03:41:59.785Z,0.82
2022-12-27T03:42:59.732Z,0.89
2022-12-27T03:43:59.750Z,0.84
2022-12-27T03:44:59.731Z,0.88
2022-12-27T03:45:59.742Z,0.86
2022-12-27T03:47:00.727Z,0.85
2022-12-27T03:47:59.716Z,0.85
2022-12-27T03:48:59.688Z,0.84
2022-12-27T03:49:59.647Z,0.84
2022-12-27T03:50:59.735Z,0.86
2022-12-27T03:51:59.636Z,0.91
2022-12-27T03:52:59.623Z,0.86
2022-12-27T03:53:59.639Z,0.85
2022-12-27T03:54:59.617Z,0.86
2022-12-27T03:55:59.589Z,0.88
2022-12-27T03:56:59.613Z,0.81
2022-12-27T03:57:59.610Z,0.86
2022-12-27T03:58:59.560Z,0.85
2022-12-27T03:59:59.582Z,0.85
2022-12-27T04:00:59.547Z,0.77
2022-12-27T04:02:00.582Z,0.84
2022-12-27T04:02:59.655Z,0.91
2022-12-27T04:03:59.552Z,0.91
2022-12-27T04:04:59.514Z,0.89
2022-12-27T04:05:59.501Z,0.77
2022-12-27T04:06:59.508Z,0.89
2022-12-27T04:07:59.480Z,0.85
2022-12-27T04:08:59.499Z,0.88
2022-12-27T04:09:59.518Z,0.89
2022-12-27T04:10:59.444Z,0.89
2022-12-27T04:11:59.439Z,0.89
2022-12-27T04:12:59.427Z,0.88
2022-12-27T04:13:59.430Z,0.88
2022-12-27T04:14:59.397Z,0.88
2022-12-27T04:15:59.445Z,0.85
2022-12-27T04:16:59.396Z,0.81
2022-12-27T04:17:59.368Z,0.99
2022-12-27T04:18:59.360Z,0.96
2022-12-27T04:19:59.358Z,0.85
2022-12-27T04:20:59.348Z,0.85
2022-12-27T04:21:59.314Z,0.94
2022-12-27T04:22:59.318Z,0.88
2022-12-27T04:23:59.332Z,0.94
2022-12-27T04:24:59.293Z,0.92
2022-12-27T04:25:59.264Z,0.84
2022-12-27T04:26:59.267Z,0.84
2022-12-27T04:27:59.284Z,0.82
2022-12-27T04:28:59.267Z,0.76
2022-12-27T04:29:59.228Z,0.78
2022-12-27T04:30:59.284Z,0.81
2022-12-27T04:31:59.200Z,0.85
2022-12-27T04:32:59.201Z,0.84
2022-12-27T04:33:59.223Z,0.81
2022-12-27T04:34:59.190Z,0.84
2022-12-27T04:36:04.328Z,0.91
2022-12-27T04:37:01.176Z,0.76
2022-12-27T04:37:59.159Z,0.84
2022-12-27T04:38:59.138Z,0.92
2022-12-27T04:39:59.143Z,0.85
2022-12-27T04:40:59.123Z,0.91
2022-12-27T04:41:59.086Z,0.99
2022-12-27T04:42:59.094Z,0.99
2022-12-27T04:43:59.111Z,0.86
2022-12-27T04:44:59.099Z,1.00
2022-12-27T04:45:59.047Z,1.00
2022-12-27T04:46:59.070Z,0.95
2022-12-27T04:47:59.038Z,0.95
2022-12-27T04:48:59.015Z,0.91
2022-12-27T04:49:59.033Z,1.04
2022-12-27T04:50:59.014Z,0.92
2022-12-27T04:51:58.985Z,1.00
2022-12-27T04:52:58.995Z,1.02
2022-12-27T04:53:59.020Z,1.00
2022-12-27T04:54:59.002Z,0.94
2022-12-27T04:55:58.949Z,0.95
2022-12-27T04:56:58.937Z,0.88
2022-12-27T04:57:58.946Z,0.92
2022-12-27T04:58:58.937Z,0.86
2022-12-27T04:59:58.901Z,0.78
2022-12-27T05:00:59.909Z,0.81
2022-12-27T05:01:59.003Z,0.82
2022-12-27T05:02:58.937Z,0.78
2022-12-27T05:03:58.886Z,0.70
2022-12-27T05:04:58.877Z,0.68
2022-12-27T05:05:58.829Z,0.76
2022-12-27T05:06:58.833Z,0.70
2022-12-27T05:07:58.838Z,0.44
2022-12-27T05:08:58.842Z,0.45
2022-12-27T05:09:58.964Z,0.48
2022-12-27T05:10:58.807Z,0.51
2022-12-27T05:11:58.766Z,0.39
2022-12-27T05:12:58.777Z,0.36
2022-12-27T05:13:58.778Z,0.29
2022-12-27T05:14:58.785Z,0.20
2022-12-27T05:15:58.782Z,0.13
2022-12-27T05:16:58.724Z,0.24
2022-12-27T05:17:58.733Z,0.29
2022-12-27T05:18:58.707Z,0.29
2022-12-27T05:19:58.721Z,0.24
2022-12-27T05:20:58.689Z,0.42
2022-12-27T05:21:58.673Z,0.47
2022-12-27T05:22:58.661Z,0.48
2022-12-27T05:24:04.961Z,0.56
2022-12-27T05:25:00.651Z,0.52
2022-12-27T05:25:58.622Z,0.48
2022-12-27T05:26:58.663Z,0.52
2022-12-27T05:27:58.625Z,0.45
2022-12-27T05:28:58.638Z,0.56
2022-12-27T05:29:58.578Z,0.71
2022-12-27T05:30:58.652Z,0.67
2022-12-27T05:31:58.585Z,0.66
2022-12-27T05:32:58.570Z,0.64
2022-12-27T05:33:58.553Z,0.67
2022-12-27T05:34:58.554Z,0.49
2022-12-27T05:35:58.509Z,0.59
2022-12-27T05:36:58.523Z,0.67
2022-12-27T05:37:58.520Z,0.73
2022-12-27T05:38:58.524Z,0.70
2022-12-27T05:39:58.463Z,0.73
2022-12-27T05:40:58.471Z,0.84
2022-12-27T05:41:58.480Z,0.82
2022-12-27T05:42:58.434Z,0.84
2022-12-27T05:44:02.064Z,0.86
2022-12-27T05:45:00.472Z,0.88
2022-12-27T05:45:58.422Z,0.88
2022-12-27T05:46:58.436Z,0.99
2022-12-27T05:47:58.429Z,1.03
2022-12-27T05:48:58.407Z,0.99
2022-12-27T05:49:58.367Z,1.03
2022-12-27T05:50:58.415Z,1.07
2022-12-27T05:51:58.359Z,0.99
2022-12-27T05:52:58.348Z,1.04
2022-12-27T05:53:58.351Z,0.99
2022-12-27T05:54:58.339Z,0.95
2022-12-27T05:55:58.315Z,1.06
2022-12-27T05:56:58.318Z,0.96
2022-12-27T05:57:58.324Z,0.99
2022-12-27T05:58:58.256Z,1.16
2022-12-27T05:59:58.289Z,1.10
2022-12-27T06:00:58.267Z,1.25
2022-12-27T06:01:58.400Z,1.32
2022-12-27T06:02:58.344Z,1.36
2022-12-27T06:03:58.235Z,1.36
2022-12-27T06:04:58.222Z,1.39
2022-12-27T06:05:58.197Z,1.43
2022-12-27T06:06:58.217Z,1.53
2022-12-27T06:07:58.191Z,1.53
2022-12-27T06:08:58.170Z,1.60
2022-12-27T06:09:58.183Z,1.70
2022-12-27T06:10:58.171Z,1.76
2022-12-27T06:11:59.126Z,1.71
2022-12-27T06:12:58.136Z,1.76
2022-12-27T06:13:58.143Z,1.75
2022-12-27T06:14:58.098Z,1.71
2022-12-27T06:15:58.109Z,1.81
2022-12-27T06:16:58.081Z,1.85
2022-12-27T06:17:58.076Z,1.78
2022-12-27T06:18:58.062Z,1.86
2022-12-27T06:19:58.066Z,1.92
2022-12-27T06:20:58.049Z,1.92
2022-12-27T06:21:59.006Z,1.97
2022-12-27T06:22:58.025Z,1.97
2022-12-27T06:23:58.018Z,1.95
2022-12-27T06:24:58.005Z,1.98
2022-12-27T06:25:58.003Z,1.92
2022-12-27T06:26:58.020Z,1.88
2022-12-27T06:27:57.948Z,2.00
2022-12-27T06:28:57.957Z,2.01
2022-12-27T06:29:57.987Z,2.04
2022-12-27T06:30:57.925Z,2.10
2022-12-27T06:31:57.943Z,2.05
2022-12-27T06:32:57.919Z,2.14
2022-12-27T06:33:57.908Z,2.22
2022-12-27T06:34:57.911Z,2.12
2022-12-27T06:35:57.887Z,2.19
2022-12-27T06:36:57.869Z,2.19
2022-12-27T06:37:57.872Z,2.21
2022-12-27T06:38:57.839Z,2.22
2022-12-27T06:39:57.850Z,2.19
2022-12-27T06:40:57.845Z,2.28
2022-12-27T06:41:57.812Z,2.34
2022-12-27T06:42:57.787Z,2.41
2022-12-27T06:43:57.844Z,2.37
2022-12-27T06:44:57.802Z,2.34
2022-12-27T06:45:57.813Z,2.43
2022-12-27T06:46:57.772Z,2.41
2022-12-27T06:47:57.739Z,2.51
2022-12-27T06:48:57.730Z,2.47
2022-12-27T06:49:57.775Z,2.47
2022-12-27T06:50:57.742Z,2.57
2022-12-27T06:51:59.907Z,2.52
2022-12-27T06:52:58.708Z,2.61
2022-12-27T06:53:57.713Z,2.59
2022-12-27T06:54:57.685Z,2.68
2022-12-27T06:55:57.676Z,2.61
2022-12-27T06:56:57.663Z,2.72
2022-12-27T06:57:57.632Z,2.76
2022-12-27T06:58:57.621Z,2.79
2022-12-27T06:59:57.653Z,2.90
2022-12-27T07:00:57.627Z,2.94
2022-12-27T07:01:57.688Z,2.94
2022-12-27T07:02:57.667Z,3.00
2022-12-27T07:03:57.590Z,2.94
2022-12-27T07:04:57.610Z,3.00
2022-12-27T07:05:57.540Z,2.93
2022-12-27T07:06:57.529Z,3.05
2022-12-27T07:07:57.542Z,2.97
2022-12-27T07:08:57.537Z,2.97
2022-12-27T07:09:57.492Z,2.95
2022-12-27T07:10:57.510Z,2.95
2022-12-27T07:11:57.492Z,2.98
2022-12-27T07:12:57.474Z,2.93
2022-12-27T07:13:57.496Z,3.05
2022-12-27T07:14:57.460Z,3.00
2022-12-27T07:15:57.445Z,3.05
2022-12-27T07:16:57.481Z,3.13
2022-12-27T07:17:57.443Z,3.03
2022-12-27T07:18:57.430Z,3.03
2022-12-27T07:19:57.427Z,3.00
2022-12-27T07:20:57.390Z,3.03
2022-12-27T07:21:57.386Z,3.05
2022-12-27T07:22:57.365Z,3.11
2022-12-27T07:23:57.503Z,3.03
2022-12-27T07:24:57.361Z,3.08
2022-12-27T07:25:57.332Z,3.06
2022-12-27T07:26:57.349Z,3.08
2022-12-27T07:27:57.307Z,3.13
2022-12-27T07:28:57.308Z,3.15
2022-12-27T07:29:57.315Z,3.15
2022-12-27T07:30:57.307Z,3.15
2022-12-27T07:31:57.347Z,3.11
2022-12-27T07:32:57.259Z,3.18
2022-12-27T07:33:57.295Z,3.15
2022-12-27T07:34:57.237Z,3.08
2022-12-27T07:35:57.218Z,3.11
2022-12-27T07:36:57.239Z,3.05
2022-12-27T07:37:57.231Z,3.00
2022-12-27T07:38:57.202Z,3.00
2022-12-27T07:39:57.276Z,3.00
2022-12-27T07:40:57.176Z,2.98
2022-12-27T07:41:57.175Z,3.05
2022-12-27T07:42:57.154Z,3.09
2022-12-27T07:43:57.203Z,3.18
2022-12-27T07:44:57.147Z,3.21
2022-12-27T07:45:57.128Z,3.16
2022-12-27T07:46:57.132Z,3.21
2022-12-27T07:47:57.120Z,3.22
2022-12-27T07:48:57.122Z,3.12
2022-12-27T07:49:57.096Z,3.16
2022-12-27T07:50:57.104Z,3.26
2022-12-27T07:51:57.062Z,3.18
2022-12-27T07:52:57.074Z,3.24
2022-12-27T07:53:57.078Z,3.18
2022-12-27T07:54:57.035Z,3.27
2022-12-27T07:55:57.049Z,3.27
2022-12-27T07:56:57.027Z,3.30
2022-12-27T07:57:57.013Z,3.40
2022-12-27T07:58:56.978Z,3.45
2022-12-27T07:59:57.013Z,3.48
2022-12-27T08:00:57.023Z,3.48
2022-12-27T08:01:57.161Z,3.36
2022-12-27T08:02:56.987Z,3.46
2022-12-27T08:03:57.002Z,3.52
2022-12-27T08:04:56.942Z,3.46
2022-12-27T08:05:56.895Z,3.40
2022-12-27T08:06:56.921Z,3.43
2022-12-27T08:07:56.928Z,3.40
2022-12-27T08:08:56.898Z,3.43
2022-12-27T08:09:56.906Z,3.55
2022-12-27T08:11:00.635Z,3.53
2022-12-27T08:11:58.872Z,3.55
2022-12-27T08:12:56.849Z,3.56
2022-12-27T08:13:56.818Z,3.59
2022-12-27T08:14:56.851Z,3.56
2022-12-27T08:15:56.801Z,3.56
2022-12-27T08:16:56.854Z,3.64
2022-12-27T08:17:56.830Z,3.52
2022-12-27T08:18:56.792Z,3.64
2022-12-27T08:19:56.770Z,3.61
2022-12-27T08:20:56.751Z,3.70
2022-12-27T08:21:56.778Z,3.68
2022-12-27T08:22:56.738Z,3.68
2022-12-27T08:23:56.749Z,3.74
2022-12-27T08:24:56.719Z,3.74
2022-12-27T08:25:56.689Z,3.74
2022-12-27T08:26:56.684Z,3.76
2022-12-27T08:27:56.713Z,3.81
2022-12-27T08:28:56.696Z,3.85
2022-12-27T08:29:56.658Z,3.88
2022-12-27T08:30:56.737Z,3.88
2022-12-27T08:31:56.616Z,3.94
2022-12-27T08:32:56.635Z,3.91
2022-12-27T08:33:58.623Z,3.95
2022-12-27T08:35:12.053Z,3.99
2022-12-27T08:35:58.597Z,3.92
2022-12-27T08:36:56.911Z,4.13
2022-12-27T08:37:56.582Z,4.25
2022-12-27T08:38:56.569Z,4.21
2022-12-27T08:40:02.394Z,4.30
2022-12-27T08:40:58.539Z,4.25
2022-12-27T08:41:56.557Z,4.40
2022-12-27T08:42:56.522Z,4.48
2022-12-27T08:43:56.520Z,4.46
2022-12-27T08:44:56.499Z,4.52
2022-12-27T08:45:56.589Z,4.50
2022-12-27T08:46:56.459Z,4.57
2022-12-27T08:47:56.496Z,4.58
2022-12-27T08:48:56.462Z,4.64
2022-12-27T08:49:56.431Z,4.61
2022-12-27T08:50:56.425Z,4.68
2022-12-27T08:51:56.447Z,4.66
2022-12-27T08:52:56.428Z,4.79
2022-12-27T08:53:56.389Z,4.86
2022-12-27T08:54:56.408Z,4.89
2022-12-27T08:55:56.370Z,4.87
2022-12-27T08:56:56.380Z,4.82
2022-12-27T08:57:56.386Z,4.94
2022-12-27T08:58:56.365Z,4.94
2022-12-27T08:59:56.327Z,4.90
2022-12-27T09:00:56.336Z,5.01
2022-12-27T09:01:56.442Z,5.01
2022-12-27T09:02:56.379Z,5.07
2022-12-27T09:03:56.331Z,5.07
2022-12-27T09:04:56.319Z,5.16
2022-12-27T09:05:56.269Z,5.15
2022-12-27T09:06:56.298Z,5.20
2022-12-27T09:07:56.289Z,5.18
2022-12-27T09:08:56.316Z,5.25
2022-12-27T09:09:56.245Z,5.23
2022-12-27T09:10:56.228Z,5.25
2022-12-27T09:11:57.244Z,5.33
2022-12-27T09:12:56.234Z,5.46
2022-12-27T09:13:56.180Z,5.47
2022-12-27T09:14:56.196Z,5.37
2022-12-27T09:15:56.254Z,5.25
2022-12-27T09:16:56.176Z,5.20
2022-12-27T09:17:56.189Z,5.26
2022-12-27T09:18:56.186Z,5.36
2022-12-27T09:19:56.133Z,5.23
2022-12-27T09:20:56.153Z,5.29
2022-12-27T09:21:56.129Z,5.23
2022-12-27T09:22:56.118Z,5.38
2022-12-27T09:23:56.115Z,5.34
2022-12-27T09:24:56.082Z,5.34
2022-12-27T09:25:56.102Z,5.40
2022-12-27T09:26:56.078Z,5.49
2022-12-27T09:27:56.066Z,5.52
2022-12-27T09:28:56.058Z,5.51
2022-12-27T09:29:56.049Z,5.58
2022-12-27T09:30:56.057Z,5.59
2022-12-27T09:31:56.036Z,5.54
2022-12-27T09:32:56.027Z,5.51
2022-12-27T09:33:55.973Z,5.56
2022-12-27T09:34:56.003Z,5.55
2022-12-27T09:35:56.001Z,5.54
2022-12-27T09:36:55.956Z,5.55
2022-12-27T09:37:55.968Z,5.59
2022-12-27T09:38:55.949Z,5.56
2022-12-27T09:39:55.915Z,5.56
2022-12-27T09:40:55.927Z,5.69
2022-12-27T09:43:12.622Z,5.73
2022-12-27T09:43:57.878Z,5.79
2022-12-27T09:44:55.886Z,5.80
2022-12-27T09:45:55.923Z,5.87
2022-12-27T09:46:55.885Z,5.84
2022-12-27T09:47:55.870Z,5.77
2022-12-27T09:48:55.837Z,5.87
2022-12-27T09:49:55.840Z,5.97
2022-12-27T09:50:55.838Z,6.02
2022-12-27T09:51:55.833Z,6.07
2022-12-27T09:52:55.827Z,6.25
2022-12-27T09:53:55.783Z,6.26
2022-12-27T09:54:59.470Z,6.26
2022-12-27T09:55:57.783Z,6.32
2022-12-27T09:57:18.764Z,6.43
2022-12-27T09:57:57.741Z,6.32
2022-12-27T09:58:55.759Z,6.35
2022-12-27T09:59:55.731Z,6.31
2022-12-27T10:00:55.725Z,6.34
2022-12-27T10:01:55.850Z,6.43
2022-12-27T10:02:55.712Z,6.32
2022-12-27T10:03:55.677Z,6.38
2022-12-27T10:05:23.102Z,6.46
2022-12-27T10:05:57.724Z,6.39
2022-12-27T10:06:55.635Z,6.34
2022-12-27T10:07:55.671Z,6.31
2022-12-27T10:08:55.654Z,6.47
2022-12-27T10:09:55.644Z,6.49
2022-12-27T10:10:55.609Z,6.56
2022-12-27T10:11:55.622Z,6.71
2022-12-27T10:12:55.621Z,6.56
2022-12-27T10:13:55.573Z,6.54
2022-12-27T10:14:55.580Z,6.35
2022-12-27T10:15:55.575Z,6.52
2022-12-27T10:16:55.564Z,6.54
2022-12-27T10:17:55.591Z,6.41
2022-12-27T10:18:55.549Z,6.64
2022-12-27T10:19:55.527Z,6.59
2022-12-27T10:20:55.503Z,6.72
2022-12-27T10:21:55.535Z,6.65
2022-12-27T10:22:55.485Z,6.70
2022-12-27T10:23:55.547Z,6.72
2022-12-27T10:24:56.490Z,6.44
2022-12-27T10:25:55.453Z,6.36
2022-12-27T10:26:55.465Z,6.25
2022-12-27T10:27:55.469Z,6.07
2022-12-27T10:28:57.131Z,6.09
2022-12-27T10:29:56.421Z,6.19
2022-12-27T10:30:55.490Z,6.35
2022-12-27T10:31:55.385Z,6.20
2022-12-27T10:32:55.401Z,6.25
2022-12-27T10:33:55.416Z,6.16
2022-12-27T10:34:55.395Z,6.13
2022-12-27T10:35:55.359Z,6.17
2022-12-27T10:36:55.365Z,6.31
2022-12-27T10:37:55.369Z,6.26
2022-12-27T10:38:55.310Z,6.26
2022-12-27T10:39:55.341Z,6.12
2022-12-27T10:40:55.347Z,6.13
2022-12-27T10:41:55.276Z,6.12
2022-12-27T10:42:55.291Z,6.12
2022-12-27T10:43:55.311Z,6.09
2022-12-27T10:44:55.287Z,6.09
2022-12-27T10:45:55.243Z,6.15
2022-12-27T10:46:55.371Z,6.10
2022-12-27T10:47:55.254Z,6.07
2022-12-27T10:49:19.991Z,6.09
2022-12-27T10:49:57.220Z,5.92
2022-12-27T10:50:55.235Z,5.99
2022-12-27T10:51:55.289Z,6.09
2022-12-27T10:52:57.697Z,5.98
2022-12-27T10:53:56.177Z,5.94
2022-12-27T10:54:55.198Z,5.97
2022-12-27T10:55:55.162Z,5.90
2022-12-27T10:56:55.167Z,5.95
2022-12-27T10:57:55.168Z,5.87
2022-12-27T10:58:59.017Z,5.92
2022-12-27T10:59:56.129Z,5.94
2022-12-27T11:00:55.156Z,5.99
2022-12-27T11:01:55.289Z,6.07
2022-12-27T11:02:55.133Z,6.20
2022-12-27T11:03:55.135Z,6.25
2022-12-27T11:04:55.094Z,6.22
2022-12-27T11:06:27.005Z,6.28
2022-12-27T11:06:55.121Z,6.13
2022-12-27T11:07:55.052Z,6.20
2022-12-27T11:08:55.036Z,6.12
2022-12-27T11:09:55.050Z,6.22
2022-12-27T11:10:55.016Z,6.32
2022-12-27T11:11:55.015Z,6.34
2022-12-27T11:12:55.009Z,6.34
2022-12-27T11:13:54.984Z,6.32
2022-12-27T11:14:54.991Z,6.39
2022-12-27T11:15:58.513Z,6.32
2022-12-27T11:16:55.977Z,6.41
2022-12-27T11:17:54.942Z,6.52
2022-12-27T11:18:54.961Z,6.65
2022-12-27T11:19:54.916Z,6.53
2022-12-27T11:20:54.914Z,6.53
2022-12-27T11:21:54.917Z,6.38
2022-12-27T11:22:54.908Z,6.41
2022-12-27T11:23:54.898Z,6.44
2022-12-27T11:24:54.883Z,6.47
2022-12-27T11:25:54.877Z,6.44
2022-12-27T11:26:54.884Z,6.35
2022-12-27T11:27:54.835Z,6.38
2022-12-27T11:28:54.834Z,6.46
2022-12-27T11:29:54.844Z,6.54
2022-12-27T11:30:54.803Z,6.77
2022-12-27T11:31:54.836Z,6.83
2022-12-27T11:32:54.811Z,6.87
2022-12-27T11:33:54.771Z,6.93
2022-12-27T11:34:54.780Z,6.90
2022-12-27T11:35:54.750Z,7.03
2022-12-27T11:36:54.766Z,6.82
2022-12-27T11:37:54.765Z,6.93
2022-12-27T11:38:54.729Z,7.03
2022-12-27T11:39:54.746Z,7.07
2022-12-27T11:40:54.712Z,6.93
2022-12-27T11:41:54.717Z,6.90
2022-12-27T11:42:54.696Z,6.80
2022-12-27T11:43:54.688Z,6.83
2022-12-27T11:44:54.655Z,6.89
2022-12-27T11:45:54.642Z,6.72
2022-12-27T11:46:59.064Z,6.50
2022-12-27T11:47:55.653Z,6.68
2022-12-27T11:48:54.644Z,6.80
2022-12-27T11:49:54.599Z,6.78
2022-12-27T11:50:54.596Z,6.65
2022-12-27T11:51:54.589Z,6.80
2022-12-27T11:52:54.569Z,6.86
2022-12-27T11:53:56.595Z,6.83
2022-12-27T11:54:55.576Z,6.96
2022-12-27T11:55:54.585Z,7.01
2022-12-27T11:56:54.522Z,7.14
2022-12-27T11:57:54.526Z,7.21
2022-12-27T11:58:54.530Z,7.31
2022-12-27T11:59:55.501Z,7.28
2022-12-27T12:00:54.492Z,7.26
2022-12-27T12:01:54.556Z,6.92
2022-12-27T12:02:54.616Z,6.87
2022-12-27T12:03:54.464Z,6.92
2022-12-27T12:04:54.447Z,6.89
2022-12-27T12:05:54.474Z,6.92
2022-12-27T12:06:54.421Z,6.95
2022-12-27T12:07:54.438Z,6.97
2022-12-27T12:08:54.419Z,7.00
2022-12-27T12:09:54.398Z,6.87
2022-12-27T12:10:54.396Z,6.96
2022-12-27T12:11:55.282Z,6.97
2022-12-27T12:12:55.370Z,6.86
2022-12-27T12:13:54.347Z,6.78
2022-12-27T12:14:55.207Z,6.68
2022-12-27T12:15:54.341Z,6.80
2022-12-27T12:16:54.377Z,6.93
2022-12-27T12:17:54.300Z,6.86
2022-12-27T12:18:54.295Z,6.74
2022-12-27T12:19:54.307Z,6.62
2022-12-27T12:20:54.288Z,6.60
2022-12-27T12:21:54.291Z,6.65
2022-12-27T12:22:54.262Z,6.67
2022-12-27T12:23:54.239Z,6.67
2022-12-27T12:24:54.268Z,6.80
2022-12-27T12:25:54.237Z,6.62
2022-12-27T12:26:55.988Z,6.62
2022-12-27T12:27:55.204Z,6.60
2022-12-27T12:28:59.348Z,6.56
2022-12-27T12:29:56.205Z,6.67
2022-12-27T12:30:54.172Z,6.71
2022-12-27T12:31:54.186Z,6.74
2022-12-27T12:32:54.148Z,6.90
2022-12-27T12:33:54.170Z,6.87
2022-12-27T12:34:54.180Z,6.83
2022-12-27T12:35:54.124Z,6.96
2022-12-27T12:36:54.124Z,6.86
2022-12-27T12:37:54.100Z,7.00
2022-12-27T12:38:54.112Z,7.08
2022-12-27T12:39:54.095Z,7.05
2022-12-27T12:40:54.076Z,7.03
2022-12-27T12:41:54.083Z,6.89
2022-12-27T12:42:54.072Z,6.89
2022-12-27T12:43:54.044Z,6.85
2022-12-27T12:44:54.049Z,6.92
2022-12-27T12:45:54.097Z,6.96
2022-12-27T12:46:54.007Z,6.83
2022-12-27T12:47:54.032Z,6.85
2022-12-27T12:48:54.006Z,7.01
2022-12-27T12:49:53.993Z,6.93
2022-12-27T12:50:53.987Z,6.80
2022-12-27T12:51:54.005Z,6.86
2022-12-27T12:52:53.957Z,6.77
2022-12-27T12:53:53.944Z,6.82
2022-12-27T12:54:53.957Z,6.75
2022-12-27T12:55:53.959Z,6.72
2022-12-27T12:56:53.909Z,6.72
2022-12-27T12:57:53.908Z,6.74
2022-12-27T12:58:53.909Z,6.77
2022-12-27T12:59:53.899Z,6.65
2022-12-27T13:00:53.896Z,6.57
2022-12-27T13:01:54.012Z,6.78
2022-12-27T13:02:53.952Z,6.78
2022-12-27T13:03:54.863Z,6.75
2022-12-27T13:04:53.828Z,6.64
2022-12-27T13:05:53.854Z,6.57
2022-12-27T13:06:53.821Z,6.53
2022-12-27T13:07:53.803Z,6.53
2022-12-27T13:08:53.816Z,6.60
2022-12-27T13:09:53.791Z,6.71
2022-12-27T13:10:53.778Z,6.90
2022-12-27T13:11:53.795Z,6.95
2022-12-27T13:12:53.776Z,7.13
2022-12-27T13:13:53.747Z,7.28
2022-12-27T13:14:53.744Z,7.14
2022-12-27T13:15:53.746Z,7.03
2022-12-27T13:16:53.822Z,7.04
2022-12-27T13:17:53.694Z,7.10
2022-12-27T13:18:53.716Z,7.01